sensor_id;sensor_type;location;lat;lon;timestamp;P1;durP1;ratioP1;P2;durP2;ratioP2
5821;SDS011;2937;48.562;8.022;2023-07-13T00:04:04;8.07;;;3.10;;
5821;SDS011;2937;48.562;8.022;2023-07-13T00:08:57;4.20;;;2.60;;
5821;SDS011;2937;48.562;8.022;2023-07-13T00:13:50;8.20;;;2.63;;
5821;SDS011;2937;48.562;8.022;2023-07-13T00:18:44;3.60;;;2.60;;
5821;SDS011;2937;48.562;8.022;2023-07-13T00:23:38;6.33;;;2.80;;
5821;SDS011;2937;48.562;8.022;2023-07-13T00:28:31;8.60;;;2.83;;
5821;SDS011;2937;48.562;8.022;2023-07-13T00:33:24;6.30;;;2.90;;
5821;SDS011;2937;48.562;8.022;2023-07-13T00:38:18;4.60;;;2.57;;
5821;SDS011;2937;48.562;8.022;2023-07-13T00:43:12;6.40;;;2.70;;
5821;SDS011;2937;48.562;8.022;2023-07-13T00:48:06;9.37;;;3.43;;
5821;SDS011;2937;48.562;8.022;2023-07-13T00:53:00;3.33;;;2.80;;
5821;SDS011;2937;48.562;8.022;2023-07-13T00:57:54;4.33;;;2.90;;
5821;SDS011;2937;48.562;8.022;2023-07-13T01:02:47;4.73;;;3.07;;
5821;SDS011;2937;48.562;8.022;2023-07-13T01:07:41;6.77;;;3.07;;
5821;SDS011;2937;48.562;8.022;2023-07-13T01:12:36;3.17;;;2.80;;
5821;SDS011;2937;48.562;8.022;2023-07-13T01:17:30;9.00;;;2.90;;
5821;SDS011;2937;48.562;8.022;2023-07-13T01:22:25;4.10;;;2.90;;
5821;SDS011;2937;48.562;8.022;2023-07-13T01:27:20;4.20;;;3.03;;
5821;SDS011;2937;48.562;8.022;2023-07-13T01:32:15;3.60;;;3.03;;
5821;SDS011;2937;48.562;8.022;2023-07-13T01:37:09;5.43;;;3.40;;
5821;SDS011;2937;48.562;8.022;2023-07-13T01:42:03;5.47;;;3.20;;
5821;SDS011;2937;48.562;8.022;2023-07-13T01:46:57;6.27;;;2.93;;
5821;SDS011;2937;48.562;8.022;2023-07-13T01:51:50;6.80;;;3.53;;
5821;SDS011;2937;48.562;8.022;2023-07-13T01:56:42;9.70;;;3.37;;
5821;SDS011;2937;48.562;8.022;2023-07-13T02:01:36;7.03;;;3.53;;
5821;SDS011;2937;48.562;8.022;2023-07-13T02:06:29;4.17;;;3.07;;
5821;SDS011;2937;48.562;8.022;2023-07-13T02:11:22;5.17;;;3.03;;
5821;SDS011;2937;48.562;8.022;2023-07-13T02:16:16;3.90;;;3.50;;
5821;SDS011;2937;48.562;8.022;2023-07-13T02:21:10;4.67;;;2.90;;
5821;SDS011;2937;48.562;8.022;2023-07-13T02:26:03;5.00;;;3.47;;
5821;SDS011;2937;48.562;8.022;2023-07-13T02:31:03;4.40;;;3.40;;
5821;SDS011;2937;48.562;8.022;2023-07-13T02:35:56;5.40;;;3.33;;
5821;SDS011;2937;48.562;8.022;2023-07-13T02:40:50;3.97;;;3.40;;
5821;SDS011;2937;48.562;8.022;2023-07-13T02:45:44;4.27;;;3.20;;
5821;SDS011;2937;48.562;8.022;2023-07-13T02:50:37;14.83;;;3.40;;
5821;SDS011;2937;48.562;8.022;2023-07-13T02:55:29;7.33;;;3.70;;
5821;SDS011;2937;48.562;8.022;2023-07-13T03:00:23;7.60;;;4.20;;
5821;SDS011;2937;48.562;8.022;2023-07-13T03:05:16;11.77;;;3.73;;
5821;SDS011;2937;48.562;8.022;2023-07-13T03:10:09;8.70;;;3.97;;
5821;SDS011;2937;48.562;8.022;2023-07-13T03:15:09;8.43;;;4.00;;
5821;SDS011;2937;48.562;8.022;2023-07-13T03:20:08;5.10;;;3.50;;
5821;SDS011;2937;48.562;8.022;2023-07-13T03:25:01;7.27;;;3.93;;
5821;SDS011;2937;48.562;8.022;2023-07-13T03:29:54;6.87;;;4.10;;
5821;SDS011;2937;48.562;8.022;2023-07-13T03:34:48;6.23;;;3.77;;
5821;SDS011;2937;48.562;8.022;2023-07-13T03:39:42;9.40;;;4.50;;
5821;SDS011;2937;48.562;8.022;2023-07-13T03:44:36;8.97;;;5.23;;
5821;SDS011;2937;48.562;8.022;2023-07-13T03:49:28;7.40;;;4.50;;
5821;SDS011;2937;48.562;8.022;2023-07-13T03:54:21;8.57;;;4.20;;
5821;SDS011;2937;48.562;8.022;2023-07-13T03:59:15;5.10;;;3.80;;
5821;SDS011;2937;48.562;8.022;2023-07-13T04:04:09;17.47;;;4.17;;
5821;SDS011;2937;48.562;8.022;2023-07-13T04:09:03;6.07;;;4.10;;
5821;SDS011;2937;48.562;8.022;2023-07-13T04:13:57;10.30;;;4.40;;
5821;SDS011;2937;48.562;8.022;2023-07-13T04:18:51;5.50;;;3.93;;
5821;SDS011;2937;48.562;8.022;2023-07-13T04:23:46;7.97;;;3.80;;
5821;SDS011;2937;48.562;8.022;2023-07-13T04:28:39;6.70;;;3.70;;
5821;SDS011;2937;48.562;8.022;2023-07-13T04:33:31;6.03;;;3.40;;
5821;SDS011;2937;48.562;8.022;2023-07-13T04:38:27;6.70;;;3.33;;
5821;SDS011;2937;48.562;8.022;2023-07-13T04:43:20;8.10;;;3.50;;
5821;SDS011;2937;48.562;8.022;2023-07-13T04:48:12;5.13;;;3.40;;
5821;SDS011;2937;48.562;8.022;2023-07-13T04:53:05;7.17;;;3.30;;
5821;SDS011;2937;48.562;8.022;2023-07-13T04:58:00;6.87;;;3.50;;
5821;SDS011;2937;48.562;8.022;2023-07-13T05:02:54;8.17;;;3.30;;
5821;SDS011;2937;48.562;8.022;2023-07-13T05:07:47;7.33;;;3.30;;
5821;SDS011;2937;48.562;8.022;2023-07-13T05:12:39;7.10;;;3.70;;
5821;SDS011;2937;48.562;8.022;2023-07-13T05:17:33;7.53;;;3.90;;
5821;SDS011;2937;48.562;8.022;2023-07-13T05:22:26;7.00;;;3.80;;
5821;SDS011;2937;48.562;8.022;2023-07-13T05:27:19;8.07;;;3.90;;
5821;SDS011;2937;48.562;8.022;2023-07-13T05:32:12;10.33;;;3.73;;
5821;SDS011;2937;48.562;8.022;2023-07-13T05:37:07;6.53;;;3.20;;
5821;SDS011;2937;48.562;8.022;2023-07-13T05:41:59;4.50;;;3.33;;
5821;SDS011;2937;48.562;8.022;2023-07-13T05:46:52;4.70;;;3.00;;
5821;SDS011;2937;48.562;8.022;2023-07-13T05:51:46;8.50;;;3.10;;
5821;SDS011;2937;48.562;8.022;2023-07-13T05:56:40;5.47;;;2.73;;
5821;SDS011;2937;48.562;8.022;2023-07-13T06:01:33;6.60;;;3.00;;
5821;SDS011;2937;48.562;8.022;2023-07-13T06:06:25;6.10;;;3.10;;
5821;SDS011;2937;48.562;8.022;2023-07-13T06:11:19;5.63;;;3.37;;
5821;SDS011;2937;48.562;8.022;2023-07-13T06:16:13;6.07;;;3.10;;
5821;SDS011;2937;48.562;8.022;2023-07-13T06:21:07;7.10;;;3.40;;
5821;SDS011;2937;48.562;8.022;2023-07-13T06:26:00;6.70;;;3.10;;
5821;SDS011;2937;48.562;8.022;2023-07-13T06:30:53;5.60;;;3.20;;
5821;SDS011;2937;48.562;8.022;2023-07-13T06:35:47;7.30;;;3.50;;
5821;SDS011;2937;48.562;8.022;2023-07-13T06:40:40;7.73;;;3.67;;
5821;SDS011;2937;48.562;8.022;2023-07-13T06:45:35;7.90;;;4.10;;
5821;SDS011;2937;48.562;8.022;2023-07-13T06:50:27;7.10;;;3.30;;
5821;SDS011;2937;48.562;8.022;2023-07-13T06:55:22;6.17;;;3.20;;
5821;SDS011;2937;48.562;8.022;2023-07-13T07:00:15;4.77;;;3.00;;
5821;SDS011;2937;48.562;8.022;2023-07-13T07:05:08;6.00;;;3.20;;
5821;SDS011;2937;48.562;8.022;2023-07-13T07:10:00;4.97;;;3.40;;
5821;SDS011;2937;48.562;8.022;2023-07-13T07:14:55;6.60;;;3.30;;
5821;SDS011;2937;48.562;8.022;2023-07-13T07:19:48;5.73;;;3.17;;
5821;SDS011;2937;48.562;8.022;2023-07-13T07:24:41;7.83;;;3.23;;
5821;SDS011;2937;48.562;8.022;2023-07-13T07:29:33;4.30;;;3.07;;
5821;SDS011;2937;48.562;8.022;2023-07-13T07:34:31;8.53;;;3.70;;
5821;SDS011;2937;48.562;8.022;2023-07-13T07:39:23;4.80;;;2.93;;
5821;SDS011;2937;48.562;8.022;2023-07-13T07:44:16;4.60;;;2.93;;
5821;SDS011;2937;48.562;8.022;2023-07-13T07:49:09;9.53;;;3.40;;
5821;SDS011;2937;48.562;8.022;2023-07-13T07:54:03;4.80;;;3.50;;
5821;SDS011;2937;48.562;8.022;2023-07-13T07:58:56;3.90;;;2.80;;
5821;SDS011;2937;48.562;8.022;2023-07-13T08:03:51;5.97;;;2.90;;
5821;SDS011;2937;48.562;8.022;2023-07-13T08:08:47;7.63;;;3.40;;
5821;SDS011;2937;48.562;8.022;2023-07-13T08:13:41;7.90;;;3.27;;
5821;SDS011;2937;48.562;8.022;2023-07-13T08:18:34;4.30;;;2.60;;
5821;SDS011;2937;48.562;8.022;2023-07-13T08:23:26;7.93;;;3.00;;
5821;SDS011;2937;48.562;8.022;2023-07-13T08:28:19;6.30;;;2.80;;
5821;SDS011;2937;48.562;8.022;2023-07-13T08:33:13;6.23;;;2.60;;
5821;SDS011;2937;48.562;8.022;2023-07-13T08:38:06;5.87;;;2.63;;
5821;SDS011;2937;48.562;8.022;2023-07-13T08:42:59;6.17;;;2.63;;
5821;SDS011;2937;48.562;8.022;2023-07-13T08:47:52;6.17;;;2.47;;
5821;SDS011;2937;48.562;8.022;2023-07-13T08:52:47;6.00;;;1.93;;
5821;SDS011;2937;48.562;8.022;2023-07-13T08:57:40;5.90;;;2.50;;
5821;SDS011;2937;48.562;8.022;2023-07-13T09:02:35;6.07;;;2.40;;
5821;SDS011;2937;48.562;8.022;2023-07-13T09:07:34;4.80;;;2.60;;
5821;SDS011;2937;48.562;8.022;2023-07-13T09:12:35;4.00;;;2.30;;
5821;SDS011;2937;48.562;8.022;2023-07-13T09:17:32;3.60;;;2.20;;
5821;SDS011;2937;48.562;8.022;2023-07-13T09:22:26;5.20;;;2.27;;
5821;SDS011;2937;48.562;8.022;2023-07-13T09:27:21;3.77;;;2.07;;
5821;SDS011;2937;48.562;8.022;2023-07-13T09:32:15;6.33;;;2.27;;
5821;SDS011;2937;48.562;8.022;2023-07-13T09:37:09;6.03;;;2.33;;
5821;SDS011;2937;48.562;8.022;2023-07-13T09:42:03;4.67;;;2.07;;
5821;SDS011;2937;48.562;8.022;2023-07-13T09:46:59;3.53;;;2.30;;
5821;SDS011;2937;48.562;8.022;2023-07-13T09:51:58;6.50;;;2.50;;
5821;SDS011;2937;48.562;8.022;2023-07-13T09:56:54;6.80;;;2.40;;
5821;SDS011;2937;48.562;8.022;2023-07-13T10:01:47;3.40;;;2.33;;
5821;SDS011;2937;48.562;8.022;2023-07-13T10:06:41;3.20;;;2.37;;
5821;SDS011;2937;48.562;8.022;2023-07-13T10:11:36;5.47;;;2.60;;
5821;SDS011;2937;48.562;8.022;2023-07-13T10:16:30;4.33;;;2.30;;
5821;SDS011;2937;48.562;8.022;2023-07-13T10:21:26;5.17;;;2.27;;
5821;SDS011;2937;48.562;8.022;2023-07-13T10:26:29;4.80;;;2.37;;
5821;SDS011;2937;48.562;8.022;2023-07-13T10:31:23;4.57;;;2.43;;
5821;SDS011;2937;48.562;8.022;2023-07-13T10:36:27;4.17;;;2.20;;
5821;SDS011;2937;48.562;8.022;2023-07-13T10:41:21;4.30;;;2.63;;
5821;SDS011;2937;48.562;8.022;2023-07-13T10:46:15;4.80;;;2.50;;
5821;SDS011;2937;48.562;8.022;2023-07-13T10:51:10;4.10;;;2.57;;
5821;SDS011;2937;48.562;8.022;2023-07-13T10:56:05;5.37;;;2.57;;
5821;SDS011;2937;48.562;8.022;2023-07-13T11:01:02;6.17;;;2.63;;
5821;SDS011;2937;48.562;8.022;2023-07-13T11:06:04;2.30;;;2.10;;
5821;SDS011;2937;48.562;8.022;2023-07-13T11:11:01;3.57;;;2.40;;
5821;SDS011;2937;48.562;8.022;2023-07-13T11:15:54;4.20;;;2.33;;
5821;SDS011;2937;48.562;8.022;2023-07-13T11:20:47;4.57;;;2.43;;
5821;SDS011;2937;48.562;8.022;2023-07-13T11:25:40;5.20;;;2.43;;
5821;SDS011;2937;48.562;8.022;2023-07-13T11:30:36;2.60;;;2.33;;
5821;SDS011;2937;48.562;8.022;2023-07-13T11:35:31;5.53;;;2.50;;
5821;SDS011;2937;48.562;8.022;2023-07-13T11:40:26;4.60;;;2.47;;
5821;SDS011;2937;48.562;8.022;2023-07-13T11:45:21;3.53;;;2.33;;
5821;SDS011;2937;48.562;8.022;2023-07-13T11:50:30;5.80;;;2.67;;
5821;SDS011;2937;48.562;8.022;2023-07-13T11:55:23;5.97;;;2.40;;
5821;SDS011;2937;48.562;8.022;2023-07-13T12:00:17;7.40;;;2.63;;
5821;SDS011;2937;48.562;8.022;2023-07-13T12:05:11;4.87;;;2.57;;
5821;SDS011;2937;48.562;8.022;2023-07-13T12:10:13;3.80;;;2.63;;
5821;SDS011;2937;48.562;8.022;2023-07-13T12:15:10;6.27;;;3.03;;
5821;SDS011;2937;48.562;8.022;2023-07-13T12:20:10;7.23;;;2.93;;
5821;SDS011;2937;48.562;8.022;2023-07-13T12:25:08;3.40;;;2.40;;
5821;SDS011;2937;48.562;8.022;2023-07-13T12:30:03;3.33;;;2.47;;
5821;SDS011;2937;48.562;8.022;2023-07-13T12:35:01;7.30;;;2.27;;
5821;SDS011;2937;48.562;8.022;2023-07-13T12:39:55;4.70;;;2.60;;
5821;SDS011;2937;48.562;8.022;2023-07-13T12:44:49;3.30;;;2.40;;
5821;SDS011;2937;48.562;8.022;2023-07-13T12:49:43;5.80;;;3.00;;
5821;SDS011;2937;48.562;8.022;2023-07-13T12:54:40;3.10;;;2.27;;
5821;SDS011;2937;48.562;8.022;2023-07-13T12:59:42;6.43;;;2.30;;
5821;SDS011;2937;48.562;8.022;2023-07-13T13:04:38;5.53;;;2.70;;
5821;SDS011;2937;48.562;8.022;2023-07-13T13:09:33;4.67;;;2.30;;
5821;SDS011;2937;48.562;8.022;2023-07-13T13:14:25;7.50;;;2.70;;
5821;SDS011;2937;48.562;8.022;2023-07-13T13:19:19;4.43;;;2.47;;
5821;SDS011;2937;48.562;8.022;2023-07-13T13:24:13;6.07;;;2.83;;
5821;SDS011;2937;48.562;8.022;2023-07-13T13:29:10;3.10;;;2.50;;
5821;SDS011;2937;48.562;8.022;2023-07-13T13:34:07;5.33;;;2.50;;
5821;SDS011;2937;48.562;8.022;2023-07-13T13:39:00;7.67;;;2.60;;
5821;SDS011;2937;48.562;8.022;2023-07-13T13:43:53;4.33;;;2.50;;
5821;SDS011;2937;48.562;8.022;2023-07-13T13:48:47;4.30;;;2.50;;
5821;SDS011;2937;48.562;8.022;2023-07-13T13:53:41;5.00;;;2.70;;
5821;SDS011;2937;48.562;8.022;2023-07-13T13:58:34;4.87;;;2.53;;
5821;SDS011;2937;48.562;8.022;2023-07-13T14:03:27;5.27;;;2.07;;
5821;SDS011;2937;48.562;8.022;2023-07-13T14:08:21;3.77;;;2.00;;
5821;SDS011;2937;48.562;8.022;2023-07-13T14:13:16;3.47;;;2.13;;
5821;SDS011;2937;48.562;8.022;2023-07-13T14:18:10;4.90;;;1.90;;
5821;SDS011;2937;48.562;8.022;2023-07-13T14:23:03;3.20;;;2.30;;
5821;SDS011;2937;48.562;8.022;2023-07-13T14:27:58;5.37;;;2.17;;
5821;SDS011;2937;48.562;8.022;2023-07-13T14:32:52;3.07;;;1.73;;
5821;SDS011;2937;48.562;8.022;2023-07-13T14:37:45;8.33;;;2.30;;
5821;SDS011;2937;48.562;8.022;2023-07-13T14:42:38;4.40;;;2.13;;
5821;SDS011;2937;48.562;8.022;2023-07-13T14:47:32;3.80;;;2.10;;
5821;SDS011;2937;48.562;8.022;2023-07-13T14:52:25;2.83;;;2.20;;
5821;SDS011;2937;48.562;8.022;2023-07-13T14:57:19;3.30;;;2.10;;
5821;SDS011;2937;48.562;8.022;2023-07-13T15:02:15;9.80;;;2.10;;
5821;SDS011;2937;48.562;8.022;2023-07-13T15:07:11;3.83;;;2.10;;
5821;SDS011;2937;48.562;8.022;2023-07-13T15:12:05;4.67;;;2.37;;
5821;SDS011;2937;48.562;8.022;2023-07-13T15:16:58;3.60;;;2.30;;
5821;SDS011;2937;48.562;8.022;2023-07-13T15:21:51;3.60;;;2.30;;
5821;SDS011;2937;48.562;8.022;2023-07-13T15:26:47;8.20;;;2.07;;
5821;SDS011;2937;48.562;8.022;2023-07-13T15:31:40;5.03;;;2.90;;
5821;SDS011;2937;48.562;8.022;2023-07-13T15:36:33;4.27;;;2.37;;
5821;SDS011;2937;48.562;8.022;2023-07-13T15:41:27;4.20;;;2.33;;
5821;SDS011;2937;48.562;8.022;2023-07-13T15:46:22;4.23;;;2.07;;
5821;SDS011;2937;48.562;8.022;2023-07-13T15:51:18;3.63;;;2.27;;
5821;SDS011;2937;48.562;8.022;2023-07-13T15:56:16;2.90;;;2.00;;
5821;SDS011;2937;48.562;8.022;2023-07-13T16:01:10;7.00;;;2.37;;
5821;SDS011;2937;48.562;8.022;2023-07-13T16:06:08;4.57;;;2.63;;
5821;SDS011;2937;48.562;8.022;2023-07-13T16:11:03;5.97;;;2.63;;
5821;SDS011;2937;48.562;8.022;2023-07-13T16:15:56;3.53;;;2.40;;
5821;SDS011;2937;48.562;8.022;2023-07-13T16:20:51;3.37;;;2.37;;
5821;SDS011;2937;48.562;8.022;2023-07-13T16:25:46;2.83;;;2.17;;
5821;SDS011;2937;48.562;8.022;2023-07-13T16:30:40;4.97;;;2.30;;
5821;SDS011;2937;48.562;8.022;2023-07-13T16:35:34;4.43;;;2.20;;
5821;SDS011;2937;48.562;8.022;2023-07-13T16:40:28;7.83;;;2.40;;
5821;SDS011;2937;48.562;8.022;2023-07-13T16:45:23;6.20;;;2.40;;
5821;SDS011;2937;48.562;8.022;2023-07-13T16:50:19;3.13;;;2.20;;
5821;SDS011;2937;48.562;8.022;2023-07-13T16:55:13;3.07;;;2.10;;
5821;SDS011;2937;48.562;8.022;2023-07-13T17:00:10;4.97;;;2.20;;
5821;SDS011;2937;48.562;8.022;2023-07-13T17:05:11;4.13;;;2.13;;
5821;SDS011;2937;48.562;8.022;2023-07-13T17:10:08;3.07;;;2.00;;
5821;SDS011;2937;48.562;8.022;2023-07-13T17:15:08;4.80;;;2.30;;
5821;SDS011;2937;48.562;8.022;2023-07-13T17:20:02;2.27;;;1.97;;
5821;SDS011;2937;48.562;8.022;2023-07-13T17:24:58;3.80;;;2.10;;
5821;SDS011;2937;48.562;8.022;2023-07-13T17:29:51;5.07;;;2.50;;
5821;SDS011;2937;48.562;8.022;2023-07-13T17:34:46;6.83;;;2.30;;
5821;SDS011;2937;48.562;8.022;2023-07-13T17:39:39;6.60;;;2.30;;
5821;SDS011;2937;48.562;8.022;2023-07-13T17:44:32;2.80;;;2.10;;
5821;SDS011;2937;48.562;8.022;2023-07-13T17:49:26;5.63;;;3.10;;
5821;SDS011;2937;48.562;8.022;2023-07-13T17:54:23;5.23;;;2.50;;
5821;SDS011;2937;48.562;8.022;2023-07-13T17:59:17;9.40;;;2.40;;
5821;SDS011;2937;48.562;8.022;2023-07-13T18:04:13;10.70;;;2.50;;
5821;SDS011;2937;48.562;8.022;2023-07-13T18:09:12;5.03;;;2.63;;
5821;SDS011;2937;48.562;8.022;2023-07-13T18:14:06;4.97;;;2.30;;
5821;SDS011;2937;48.562;8.022;2023-07-13T18:18:59;3.40;;;2.20;;
5821;SDS011;2937;48.562;8.022;2023-07-13T18:23:53;3.77;;;2.30;;
5821;SDS011;2937;48.562;8.022;2023-07-13T18:28:46;3.33;;;2.30;;
5821;SDS011;2937;48.562;8.022;2023-07-13T18:33:39;4.63;;;2.37;;
5821;SDS011;2937;48.562;8.022;2023-07-13T18:38:34;4.90;;;2.40;;
5821;SDS011;2937;48.562;8.022;2023-07-13T18:43:29;5.20;;;2.43;;
5821;SDS011;2937;48.562;8.022;2023-07-13T18:48:22;4.53;;;2.30;;
5821;SDS011;2937;48.562;8.022;2023-07-13T18:53:16;3.53;;;2.10;;
5821;SDS011;2937;48.562;8.022;2023-07-13T18:58:09;4.63;;;2.47;;
5821;SDS011;2937;48.562;8.022;2023-07-13T19:03:04;3.83;;;2.83;;
5821;SDS011;2937;48.562;8.022;2023-07-13T19:08:04;7.80;;;2.30;;
5821;SDS011;2937;48.562;8.022;2023-07-13T19:12:58;6.30;;;2.40;;
5821;SDS011;2937;48.562;8.022;2023-07-13T19:17:54;5.60;;;2.90;;
5821;SDS011;2937;48.562;8.022;2023-07-13T19:22:48;3.23;;;2.50;;
5821;SDS011;2937;48.562;8.022;2023-07-13T19:27:41;7.90;;;2.60;;
5821;SDS011;2937;48.562;8.022;2023-07-13T19:32:34;3.50;;;2.43;;
5821;SDS011;2937;48.562;8.022;2023-07-13T19:37:27;4.67;;;3.30;;
5821;SDS011;2937;48.562;8.022;2023-07-13T19:42:22;4.40;;;3.07;;
5821;SDS011;2937;48.562;8.022;2023-07-13T19:47:16;6.77;;;3.60;;
5821;SDS011;2937;48.562;8.022;2023-07-13T19:52:09;9.77;;;3.87;;
5821;SDS011;2937;48.562;8.022;2023-07-13T19:57:03;4.07;;;3.10;;
5821;SDS011;2937;48.562;8.022;2023-07-13T20:01:57;7.37;;;3.63;;
5821;SDS011;2937;48.562;8.022;2023-07-13T20:06:50;6.67;;;3.70;;
5821;SDS011;2937;48.562;8.022;2023-07-13T20:11:43;10.03;;;3.83;;
5821;SDS011;2937;48.562;8.022;2023-07-13T20:16:39;10.30;;;3.00;;
5821;SDS011;2937;48.562;8.022;2023-07-13T20:21:34;5.83;;;3.70;;
5821;SDS011;2937;48.562;8.022;2023-07-13T20:26:26;8.30;;;3.93;;
5821;SDS011;2937;48.562;8.022;2023-07-13T20:31:20;5.40;;;3.33;;
5821;SDS011;2937;48.562;8.022;2023-07-13T20:36:13;12.70;;;3.73;;
5821;SDS011;2937;48.562;8.022;2023-07-13T20:41:09;7.07;;;3.40;;
5821;SDS011;2937;48.562;8.022;2023-07-13T20:46:04;7.20;;;3.50;;
5821;SDS011;2937;48.562;8.022;2023-07-13T20:51:01;10.50;;;3.90;;
5821;SDS011;2937;48.562;8.022;2023-07-13T20:55:56;9.23;;;3.90;;
5821;SDS011;2937;48.562;8.022;2023-07-13T21:00:51;6.10;;;3.50;;
5821;SDS011;2937;48.562;8.022;2023-07-13T21:05:44;9.27;;;4.20;;
5821;SDS011;2937;48.562;8.022;2023-07-13T21:10:37;4.63;;;3.50;;
5821;SDS011;2937;48.562;8.022;2023-07-13T21:15:31;4.93;;;3.60;;
5821;SDS011;2937;48.562;8.022;2023-07-13T21:20:27;7.17;;;3.70;;
5821;SDS011;2937;48.562;8.022;2023-07-13T21:25:21;5.90;;;3.90;;
5821;SDS011;2937;48.562;8.022;2023-07-13T21:30:15;5.70;;;3.50;;
5821;SDS011;2937;48.562;8.022;2023-07-13T21:35:15;6.53;;;3.60;;
5821;SDS011;2937;48.562;8.022;2023-07-13T21:45:08;6.00;;;3.80;;
5821;SDS011;2937;48.562;8.022;2023-07-13T21:50:07;10.90;;;4.00;;
5821;SDS011;2937;48.562;8.022;2023-07-13T21:55:00;6.23;;;3.60;;
5821;SDS011;2937;48.562;8.022;2023-07-13T21:59:52;5.97;;;3.30;;
5821;SDS011;2937;48.562;8.022;2023-07-13T22:04:46;5.97;;;4.00;;
5821;SDS011;2937;48.562;8.022;2023-07-13T22:09:39;11.90;;;3.73;;
5821;SDS011;2937;48.562;8.022;2023-07-13T22:14:32;5.70;;;3.70;;
5821;SDS011;2937;48.562;8.022;2023-07-13T22:19:25;6.83;;;3.57;;
5821;SDS011;2937;48.562;8.022;2023-07-13T22:24:21;6.23;;;3.80;;
5821;SDS011;2937;48.562;8.022;2023-07-13T22:29:16;8.40;;;3.60;;
5821;SDS011;2937;48.562;8.022;2023-07-13T22:34:10;7.27;;;4.10;;
5821;SDS011;2937;48.562;8.022;2023-07-13T22:39:05;9.40;;;3.90;;
5821;SDS011;2937;48.562;8.022;2023-07-13T22:43:59;6.50;;;3.83;;
5821;SDS011;2937;48.562;8.022;2023-07-13T22:48:54;7.53;;;3.97;;
5821;SDS011;2937;48.562;8.022;2023-07-13T22:53:47;7.63;;;3.60;;
5821;SDS011;2937;48.562;8.022;2023-07-13T22:58:42;10.60;;;3.83;;
5821;SDS011;2937;48.562;8.022;2023-07-13T23:03:36;6.03;;;3.30;;
5821;SDS011;2937;48.562;8.022;2023-07-13T23:08:30;6.70;;;4.10;;
5821;SDS011;2937;48.562;8.022;2023-07-13T23:13:22;5.80;;;3.50;;
5821;SDS011;2937;48.562;8.022;2023-07-13T23:18:16;4.77;;;3.40;;
5821;SDS011;2937;48.562;8.022;2023-07-13T23:23:11;6.33;;;4.20;;
5821;SDS011;2937;48.562;8.022;2023-07-13T23:28:04;9.60;;;4.10;;
5821;SDS011;2937;48.562;8.022;2023-07-13T23:32:58;4.97;;;3.90;;
5821;SDS011;2937;48.562;8.022;2023-07-13T23:37:51;6.33;;;3.87;;
5821;SDS011;2937;48.562;8.022;2023-07-13T23:42:45;5.90;;;4.00;;
5821;SDS011;2937;48.562;8.022;2023-07-13T23:47:38;7.53;;;3.93;;
5821;SDS011;2937;48.562;8.022;2023-07-13T23:52:31;7.10;;;3.67;;
5821;SDS011;2937;48.562;8.022;2023-07-13T23:57:24;6.53;;;3.63;;
